| Record Date MM/DD/YYYY | Record Time HH:MM:SS | Record Julian Date NNN day of the year | Air Temperature Max (Degrees Fahrenheit F) | Time Max Air Temperature HH:MM:SS This is the time of max air temp for the prior hour interval listed for record [Time]. | Air Temperature Min (Degrees Fahrenheit F) | Time Min Air Temperature HH:MM:SS This is the time of min air temp for the prior hour interval listed for record [Time]. | Air Temperature Observed (Degrees Fahrenheit F) This is an instantaneous reading at the record [Time]. | Relative Humidity Max (Percent) | Time Max Relative Humidity HH:MM:SS This is the time of max relative humidity for the prior hour interval listed for record [Time]. | Relative Humidity Min (Percent) | Time Min Relative Humidity HH:MM:SS This is the time of min relative humidity for the prior hour interval listed for record [Time]. | Relative Humidity Observed (Percent) This is an instantaneous reading at the record [Time]. | Precipitation (Inches n.nn) rain fall that occurred during the prior hour interval listed for record [Time]. | Wind Speed (Miles Per Hour) Resultant Speed that occurred during the prior hour interval listed for record [Time]. | Wind Direction (Degrees) Resultant Direction that occurred during the prior hour interval listed for record [Time]. | Solar Radiation (Langley's) that occurred during the prior hour interval listed for record [Time]. | Soil Temperature Average at 2 inch depth (Degrees Fahrenheit F) that occurred during the prior hour interval listed for record [Time]. | Soil Temperature Observed at 2 inch depth (Degrees Fahrenheit F) This is an instantaneous reading at the record [Time]. | Soil Temperature Average at 4 inch depth (Degrees Fahrenheit F) that occurred during the prior hour interval listed for record [Time]. | Soil Temperature Observed at 4 inch depth (Degrees Fahrenheit F) This is an instantaneous reading at the record [Time]. |
|---|---|---|---|---|---|---|---|---|---|---|---|---|---|---|---|---|---|---|---|---|
| 04/30/2026 | 0:00:00 | 120 | 65 | 23:00:02 | 63 | 23:30:04 | 63 | 86 | 23:35:05 | 79 | 23:00:02 | 84.1 | 0.01 | |||||||
| 04/30/2026 | 1:00:00 | 120 | 63 | 0:27:00 | 62 | 0:54:05 | 62 | 87 | 0:54:02 | 83 | 0:21:03 | 86.2 | 0 | |||||||
| 04/30/2026 | 2:00:00 | 120 | 63 | 1:06:04 | 61 | 1:35:02 | 62 | 88 | 1:44:03 | 83 | 1:13:00 | 87.7 | 0.07 | |||||||
| 04/30/2026 | 3:00:00 | 120 | 62 | 2:31:03 | 62 | 2:45:05 | 62 | 88 | 2:26:02 | 87 | 3:00:00 | 87.1 | 0 | |||||||
| 04/30/2026 | 4:00:00 | 120 | 62 | 3:20:02 | 62 | 3:58:03 | 62 | 87 | 3:00:03 | 82 | 4:00:00 | 81.5 | 0 | |||||||
| 04/30/2026 | 5:00:00 | 120 | 62 | 4:00:02 | 61 | 4:57:03 | 61 | 82 | 4:09:01 | 78 | 4:33:02 | 78.06 | 0 | |||||||
| 04/30/2026 | 6:00:00 | 120 | 61 | 5:01:05 | 60 | 5:56:01 | 60 | 79 | 5:29:03 | 75 | 5:58:02 | 75.48 | 0 | |||||||
| 04/30/2026 | 7:00:00 | 120 | 60 | 6:00:04 | 59 | 6:52:05 | 59 | 77 | 6:09:01 | 73 | 6:59:02 | 75.33 | 0 | |||||||
| 04/30/2026 | 8:00:00 | 120 | 62 | 8:00:00 | 59 | 7:00:02 | 62 | 77 | 7:11:05 | 67 | 7:52:02 | 70.23 | 0 | |||||||
| 04/30/2026 | 9:00:00 | 120 | 63 | 8:29:04 | 61 | 8:00:05 | 63 | 72 | 8:05:02 | 65 | 8:41:02 | 68.39 | 0 | |||||||
| 04/30/2026 | 10:00:00 | 120 | 64 | 9:32:00 | 63 | 9:00:01 | 64 | 72 | 9:07:03 | 63 | 9:42:05 | 64.4 | 0 | |||||||
| 04/30/2026 | 11:00:00 | 120 | 66 | 10:50:05 | 64 | 10:02:05 | 65 | 71 | 10:27:02 | 60 | 10:29:04 | 61.55 | 0 | |||||||
| 04/30/2026 | 12:00:00 | 120 | 68 | 11:59:05 | 65 | 11:01:03 | 68 | 68 | 11:20:02 | 56 | 11:56:03 | 63.39 | 0 | |||||||
| 04/30/2026 | 13:00:00 | 120 | 68 | 12:43:05 | 67 | 12:20:03 | 67 | 66 | 12:00:01 | 55 | 12:49:02 | 59.11 | 0 | |||||||
| 04/30/2026 | 14:00:00 | 120 | 68 | 13:11:01 | 66 | 13:51:04 | 66 | 64 | 13:03:04 | 55 | 13:15:05 | 59.38 | 0 | |||||||
| 04/30/2026 | 15:00:00 | 120 | 66 | 14:00:01 | 66 | 14:26:00 | 66 | 62 | 14:30:01 | 55 | 14:21:03 | 60.07 | 0 | |||||||
| 04/30/2026 | 16:00:00 | 120 | 66 | 15:00:02 | 65 | 15:11:01 | 66 | 65 | 15:30:05 | 57 | 15:42:04 | 59.39 | 0 | |||||||
| 04/30/2026 | 17:00:00 | 120 | 66 | 16:00:01 | 65 | 16:59:03 | 65 | 67 | 16:58:05 | 57 | 16:10:01 | 62.96 | 0 | |||||||
| 04/30/2026 | 18:00:00 | 120 | 65 | 17:04:02 | 64 | 17:59:01 | 64 | 69 | 17:57:04 | 61 | 17:19:00 | 66.49 | 0 | |||||||
| 04/30/2026 | 19:00:00 | 120 | 64 | 18:00:02 | 63 | 18:17:05 | 63 | 72 | 18:17:01 | 66 | 18:39:00 | 70.1 | 0 | |||||||
| 04/30/2026 | 20:00:00 | 120 | 63 | 19:00:02 | 61 | 19:48:02 | 62 | 75 | 19:47:02 | 68 | 19:16:01 | 72.61 | 0 | |||||||
| 04/30/2026 | 21:00:00 | 120 | 62 | 20:24:02 | 62 | 21:00:00 | 62 | 73 | 20:02:05 | 66 | 20:51:03 | 67.72 | 0 | |||||||
| 04/30/2026 | 22:00:00 | 120 | 62 | 21:01:01 | 61 | 21:55:02 | 61 | 71 | 21:26:02 | 66 | 21:00:05 | 68.78 | 0 | |||||||
| 04/30/2026 | 23:00:00 | 120 | 61 | 22:01:01 | 59 | 22:37:02 | 59 | 75 | 22:58:02 | 68 | 22:01:01 | 73.68 | 0 | |||||||
| 05/01/2026 | 0:00:00 | 121 | 60 | 23:16:00 | 59 | 23:59:01 | 59 | 75 | 23:04:03 | 70 | 23:53:04 | 71.71 | 0 | |||||||
| 05/01/2026 | 1:00:00 | 121 | 59 | 0:01:00 | 59 | 0:56:01 | 59 | 74 | 0:27:05 | 71 | 0:58:02 | 70.96 | 0 | |||||||
| 05/01/2026 | 2:00:00 | 121 | 59 | 1:01:01 | 58 | 1:57:04 | 58 | 73 | 1:15:00 | 69 | 1:29:01 | 71.5 | 0 | |||||||
| 05/01/2026 | 3:00:00 | 121 | 58 | 2:03:02 | 58 | 3:00:00 | 58 | 73 | 2:35:01 | 70 | 2:01:02 | 70.91 | 0 | |||||||
| 05/01/2026 | 4:00:00 | 121 | 58 | 3:14:04 | 57 | 3:48:03 | 57 | 76 | 3:54:05 | 69 | 3:10:00 | 73.95 | 0 | |||||||
| 05/01/2026 | 5:00:00 | 121 | 57 | 4:18:02 | 56 | 4:37:03 | 57 | 78 | 4:32:00 | 73 | 4:00:02 | 75.22 | 0 | |||||||
| 05/01/2026 | 6:00:00 | 121 | 57 | 5:02:00 | 56 | 5:32:00 | 57 | 79 | 5:37:00 | 74 | 5:07:02 | 75.72 | 0 | |||||||
| 05/01/2026 | 7:00:00 | 121 | 57 | 6:59:00 | 57 | 6:00:01 | 57 | 77 | 6:41:03 | 74 | 6:14:03 | 75.3 | 0 | |||||||
| 05/01/2026 | 8:00:00 | 121 | 58 | 7:59:04 | 57 | 7:01:04 | 58 | 77 | 7:00:03 | 71 | 7:38:01 | 73.55 | 0 | |||||||
| 05/01/2026 | 9:00:00 | 121 | 59 | 8:59:02 | 58 | 8:00:01 | 59 | 74 | 8:00:04 | 68 | 8:58:00 | 68.48 | 0 | |||||||
| 05/01/2026 | 10:00:00 | 121 | 60 | 9:53:05 | 59 | 9:04:01 | 60 | 71 | 9:01:04 | 63 | 9:56:05 | 64.45 | 0 | |||||||
| 05/01/2026 | 11:00:00 | 121 | 61 | 11:00:00 | 60 | 10:05:04 | 61 | 67 | 10:11:02 | 58 | 10:54:01 | 61.08 | 0 | |||||||
| 05/01/2026 | 12:00:00 | 121 | 61 | 11:26:02 | 61 | 11:32:04 | 61 | 64 | 11:53:00 | 58 | 11:07:01 | 61.89 | 0 | |||||||
| 05/01/2026 | 13:00:00 | 121 | 62 | 12:57:05 | 61 | 12:00:01 | 61 | 66 | 12:28:03 | 58 | 12:13:03 | 60.66 | 0 | |||||||
| 05/01/2026 | 14:00:00 | 121 | 63 | 13:39:00 | 61 | 13:00:02 | 62 | 63 | 13:36:03 | 54 | 13:52:00 | 56.18 | 0 | |||||||
| 05/01/2026 | 15:00:00 | 121 | 64 | 14:51:05 | 62 | 14:00:03 | 64 | 63 | 14:12:01 | 53 | 14:26:01 | 57.96 | 0 | |||||||
| 05/01/2026 | 16:00:00 | 121 | 64 | 15:00:01 | 63 | 15:56:05 | 63 | 65 | 15:59:00 | 55 | 15:02:02 | 61.08 | 0 | |||||||
| 05/01/2026 | 17:00:00 | 121 | 63 | 16:00:03 | 63 | 16:59:03 | 63 | 66 | 16:29:05 | 60 | 16:04:05 | 64.58 | 0 | |||||||
| 05/01/2026 | 18:00:00 | 121 | 63 | 17:01:03 | 61 | 17:59:00 | 61 | 75 | 17:58:01 | 63 | 17:02:02 | 74.34 | 0 | |||||||
| 05/01/2026 | 19:00:00 | 121 | 61 | 18:00:01 | 59 | 18:59:04 | 59 | 84 | 19:00:00 | 73 | 18:35:02 | 84.4 | 0 | |||||||
| 05/01/2026 | 20:00:00 | 121 | 60 | 19:22:04 | 59 | 19:11:01 | 59 | 86 | 19:06:02 | 65 | 19:55:02 | 66.74 | 0 | |||||||
| 05/01/2026 | 21:00:00 | 121 | 59 | 20:41:04 | 59 | 20:24:02 | 59 | 67 | 20:01:02 | 58 | 20:57:01 | 59.97 | 0 | |||||||
| 05/01/2026 | 22:00:00 | 121 | 59 | 21:33:03 | 59 | 21:09:04 | 59 | 61 | 21:03:03 | 57 | 21:28:03 | 59.33 | 0 | |||||||
| 05/01/2026 | 23:00:00 | 121 | 59 | 22:08:00 | 59 | 22:23:05 | 59 | 60 | 22:57:05 | 55 | 22:07:03 | 58.63 | 0 | |||||||
| 05/02/2026 | 0:00:00 | 122 | 59 | 23:08:01 | 58 | 23:57:04 | 58 | 63 | 23:54:03 | 56 | 23:07:02 | 59.84 | 0 | |||||||
| 05/02/2026 | 1:00:00 | 122 | 58 | 0:04:04 | 57 | 0:56:00 | 57 | 66 | 0:55:02 | 59 | 0:04:00 | 65.03 | 0 | |||||||
| 05/02/2026 | 2:00:00 | 122 | 57 | 1:03:03 | 55 | 1:57:01 | 55 | 74 | 1:56:03 | 63 | 1:02:04 | 68.72 | 0 | |||||||
| 05/02/2026 | 3:00:00 | 122 | 56 | 2:08:01 | 54 | 3:00:00 | 54 | 71 | 2:24:00 | 65 | 2:46:04 | 69.74 | 0 | |||||||
| 05/02/2026 | 4:00:00 | 122 | 55 | 3:18:03 | 54 | 3:56:03 | 54 | 71 | 3:53:04 | 67 | 3:16:04 | 69.04 | 0 | |||||||
| 05/02/2026 | 5:00:00 | 122 | 54 | 4:00:01 | 53 | 4:43:01 | 53 | 73 | 4:43:01 | 68 | 4:00:05 | 70.72 | 0 | |||||||
| 05/02/2026 | 6:00:00 | 122 | 53 | 5:01:01 | 52 | 5:15:02 | 52 | 77 | 5:16:00 | 70 | 5:43:05 | 71.04 | 0 | |||||||
| 05/02/2026 | 7:00:00 | 122 | 57 | 7:00:00 | 52 | 6:00:05 | 57 | 71 | 6:09:03 | 63 | 6:58:00 | 64.95 | 0 | |||||||
| 05/02/2026 | 8:00:00 | 122 | 61 | 7:58:03 | 57 | 7:00:04 | 60 | 65 | 7:02:02 | 53 | 7:57:00 | 54.79 | 0 | |||||||
| 05/02/2026 | 9:00:00 | 122 | 64 | 8:49:04 | 61 | 8:00:01 | 63 | 59 | 8:00:03 | 44 | 8:51:03 | 48.31 | 0 | |||||||
| 05/02/2026 | 10:00:00 | 122 | 67 | 9:51:04 | 64 | 9:00:01 | 66 | 52 | 9:31:02 | 39 | 9:59:00 | 44.91 | 0 | |||||||
| 05/02/2026 | 11:00:00 | 122 | 69 | 10:56:03 | 66 | 10:01:04 | 69 | 47 | 10:03:03 | 34 | 10:57:01 | 38.27 | 0 | |||||||
| 05/02/2026 | 12:00:00 | 122 | 71 | 11:49:04 | 68 | 11:02:00 | 69 | 45 | 11:30:00 | 31 | 11:10:04 | 31.22 | 0 | |||||||
| 05/02/2026 | 13:00:00 | 122 | 72 | 12:54:02 | 68 | 12:26:02 | 71 | 43 | 12:29:01 | 30 | 12:40:03 | 40.35 | 0 | |||||||
| 05/02/2026 | 14:00:00 | 122 | 72 | 13:41:01 | 70 | 13:55:02 | 72 | 42 | 13:06:02 | 32 | 13:11:00 | 39.66 | 0 | |||||||
| 05/02/2026 | 15:00:00 | 122 | 73 | 14:53:01 | 70 | 14:14:01 | 72 | 42 | 14:44:02 | 31 | 14:41:00 | 39.47 | 0 | |||||||
| 05/02/2026 | 16:00:00 | 122 | 73 | 15:06:00 | 69 | 15:25:02 | 72 | 42 | 15:26:03 | 32 | 15:06:03 | 35.82 | 0 | |||||||
| 05/02/2026 | 17:00:00 | 122 | 72 | 16:00:01 | 70 | 16:04:03 | 71 | 42 | 16:24:02 | 34 | 16:08:01 | 38.39 | 0 | |||||||
| 05/02/2026 | 18:00:00 | 122 | 71 | 17:00:02 | 68 | 17:58:01 | 68 | 46 | 17:55:04 | 36 | 17:05:00 | 46.18 | 0 | |||||||
| 05/02/2026 | 19:00:00 | 122 | 68 | 18:00:01 | 63 | 18:58:02 | 63 | 60 | 18:35:01 | 43 | 18:10:01 | 54.82 | 0 | |||||||
| 05/02/2026 | 20:00:00 | 122 | 63 | 19:04:05 | 58 | 19:55:02 | 59 | 72 | 19:54:03 | 54 | 19:06:02 | 71.93 | 0 | |||||||
| 05/02/2026 | 21:00:00 | 122 | 59 | 20:00:01 | 57 | 20:35:02 | 57 | 76 | 20:34:02 | 70 | 20:18:01 | 73.16 | 0 | |||||||
| 05/02/2026 | 22:00:00 | 122 | 57 | 21:00:01 | 55 | 21:59:03 | 55 | 83 | 21:42:05 | 73 | 21:00:01 | 77.77 | 0 | |||||||
| 05/02/2026 | 23:00:00 | 122 | 55 | 22:10:02 | 52 | 22:56:01 | 52 | 83 | 23:00:00 | 78 | 22:00:05 | 83.3 | 0 | |||||||
| 05/03/2026 | 0:00:00 | 123 | 54 | 23:34:00 | 51 | 23:58:01 | 51 | 84 | 23:09:05 | 80 | 23:35:00 | 83 | 0 | |||||||
| 05/03/2026 | 1:00:00 | 123 | 53 | 0:56:04 | 49 | 0:39:05 | 53 | 88 | 0:55:00 | 81 | 0:12:03 | 86.9 | 0 | |||||||
| 05/03/2026 | 2:00:00 | 123 | 53 | 1:00:03 | 48 | 1:44:04 | 49 | 88 | 2:00:00 | 83 | 1:36:02 | 88.2 | 0 | |||||||
| 05/03/2026 | 3:00:00 | 123 | 52 | 3:00:00 | 48 | 2:35:02 | 52 | 91 | 2:42:02 | 84 | 3:00:00 | 83.5 | 0 | |||||||
| 05/03/2026 | 4:00:00 | 123 | 53 | 3:39:00 | 52 | 3:17:03 | 53 | 83 | 3:00:01 | 76 | 3:38:04 | 76.6 | 0 | |||||||
| 05/03/2026 | 5:00:00 | 123 | 53 | 5:00:00 | 52 | 4:05:05 | 53 | 78 | 4:05:04 | 73 | 4:59:05 | 73.26 | 0 | |||||||
| 05/03/2026 | 6:00:00 | 123 | 53 | 6:00:00 | 52 | 5:26:01 | 53 | 77 | 5:30:04 | 72 | 5:59:04 | 71.94 | 0 | |||||||
| 05/03/2026 | 7:00:00 | 123 | 58 | 6:59:05 | 53 | 6:00:03 | 58 | 72 | 6:00:05 | 60 | 6:55:00 | 60.17 | 0 | |||||||
| 05/03/2026 | 8:00:00 | 123 | 61 | 8:00:00 | 58 | 7:00:05 | 61 | 62 | 7:05:00 | 52 | 7:56:02 | 53.83 | 0 | |||||||
| 05/03/2026 | 9:00:00 | 123 | 65 | 9:00:00 | 61 | 8:07:02 | 65 | 58 | 8:43:01 | 51 | 8:50:05 | 52.19 | 0 | |||||||
| 05/03/2026 | 10:00:00 | 123 | 68 | 10:00:00 | 64 | 9:02:02 | 68 | 57 | 9:14:00 | 49 | 9:57:00 | 50.07 | 0 | |||||||
| 05/03/2026 | 11:00:00 | 123 | 71 | 10:50:04 | 68 | 10:07:02 | 71 | 56 | 10:08:00 | 45 | 10:58:00 | 47.87 | 0 | |||||||
| 05/03/2026 | 12:00:00 | 123 | 75 | 11:56:00 | 71 | 11:08:05 | 74 | 52 | 11:03:01 | 37 | 11:56:02 | 39.79 | 0 | |||||||
| 05/03/2026 | 13:00:00 | 123 | 76 | 12:44:05 | 73 | 12:01:04 | 75 | 47 | 12:20:02 | 33 | 12:32:00 | 39.35 | 0 | |||||||
| 05/03/2026 | 14:00:00 | 123 | 77 | 13:53:01 | 74 | 13:18:02 | 77 | 46 | 13:09:02 | 35 | 13:56:05 | 36.62 | 0 | |||||||
| 05/03/2026 | 15:00:00 | 123 | 78 | 14:53:02 | 76 | 14:13:05 | 77 | 44 | 14:24:02 | 33 | 14:54:03 | 35.83 | 0 | |||||||
| 05/03/2026 | 16:00:00 | 123 | 78 | 15:21:00 | 77 | 15:08:00 | 78 | 41 | 15:26:03 | 33 | 15:51:04 | 39.11 | 0 | |||||||
| 05/03/2026 | 17:00:00 | 123 | 78 | 16:37:03 | 77 | 16:03:05 | 78 | 39 | 16:47:00 | 33 | 16:53:04 | 34.41 | 0 | |||||||
| 05/03/2026 | 18:00:00 | 123 | 78 | 17:06:03 | 77 | 18:00:00 | 77 | 38 | 17:54:03 | 33 | 17:18:01 | 37.55 | 0 | |||||||
| 05/03/2026 | 19:00:00 | 123 | 77 | 18:00:01 | 70 | 19:00:00 | 70 | 54 | 18:49:05 | 36 | 18:02:00 | 52.51 | 0 | |||||||
| 05/03/2026 | 20:00:00 | 123 | 70 | 19:00:01 | 67 | 19:35:02 | 68 | 60 | 19:33:01 | 53 | 19:00:01 | 56.9 | 0 | |||||||
| 05/03/2026 | 21:00:00 | 123 | 68 | 20:07:05 | 66 | 21:00:00 | 66 | 61 | 21:00:00 | 55 | 20:08:01 | 61.19 | 0 | |||||||
| 05/03/2026 | 22:00:00 | 123 | 67 | 21:29:01 | 66 | 21:03:03 | 66 | 62 | 21:03:01 | 59 | 21:29:05 | 61.12 | 0 | |||||||
| 05/03/2026 | 23:00:00 | 123 | 67 | 22:14:05 | 65 | 22:45:03 | 65 | 63 | 22:40:00 | 60 | 22:14:00 | 61.71 | 0 | |||||||
| 05/04/2026 | 0:00:00 | 124 | 66 | 23:07:02 | 64 | 23:56:00 | 64 | 67 | 23:59:05 | 61 | 23:06:04 | 66.84 | 0 | |||||||
| 05/04/2026 | 1:00:00 | 124 | 64 | 0:02:02 | 62 | 0:54:04 | 62 | 72 | 0:55:02 | 67 | 0:00:01 | 71.56 | 0 | |||||||
| 05/04/2026 | 2:00:00 | 124 | 62 | 1:08:00 | 61 | 1:58:05 | 62 | 73 | 1:59:00 | 71 | 1:32:03 | 72.37 | 0 | |||||||
| 05/04/2026 | 3:00:00 | 124 | 62 | 2:09:01 | 61 | 2:44:01 | 61 | 73 | 2:44:04 | 72 | 2:09:04 | 72.82 | 0 | |||||||
| 05/04/2026 | 4:00:00 | 124 | 61 | 3:02:02 | 59 | 4:00:00 | 59 | 76 | 4:00:00 | 73 | 3:02:05 | 76.42 | 0 | |||||||
| 05/04/2026 | 5:00:00 | 124 | 60 | 4:23:01 | 59 | 4:49:03 | 59 | 77 | 4:01:01 | 74 | 4:23:04 | 75.34 | 0 | |||||||
| 05/04/2026 | 6:00:00 | 124 | 60 | 5:55:03 | 59 | 5:01:00 | 60 | 75 | 5:00:01 | 73 | 5:45:03 | 73.61 | 0 | |||||||
| 05/04/2026 | 7:00:00 | 124 | 64 | 6:55:03 | 60 | 6:00:03 | 64 | 74 | 6:00:01 | 69 | 6:56:05 | 69.13 | 0 | |||||||
| 05/04/2026 | 8:00:00 | 124 | 68 | 8:00:00 | 64 | 7:00:01 | 68 | 70 | 7:02:00 | 62 | 7:58:04 | 63.32 | 0 | |||||||
| 05/04/2026 | 9:00:00 | 124 | 72 | 8:58:01 | 68 | 8:03:02 | 72 | 64 | 8:00:01 | 52 | 8:58:02 | 52.97 | 0 | |||||||
| 05/04/2026 | 10:00:00 | 124 | 76 | 9:57:01 | 71 | 9:06:03 | 75 | 56 | 9:09:03 | 45 | 9:58:00 | 47.83 | 0 | |||||||
| 05/04/2026 | 11:00:00 | 124 | 78 | 10:53:01 | 75 | 10:00:01 | 78 | 50 | 10:01:05 | 42 | 10:35:05 | 44.47 | 0 | |||||||
| 05/04/2026 | 12:00:00 | 124 | 80 | 11:54:00 | 77 | 11:03:05 | 79 | 47 | 11:06:05 | 35 | 11:36:04 | 41.42 | 0 | |||||||
| 05/04/2026 | 13:00:00 | 124 | 81 | 12:07:02 | 78 | 12:41:00 | 80 | 43 | 12:25:01 | 36 | 12:08:02 | 39.19 | 0 | |||||||
| 05/04/2026 | 14:00:00 | 124 | 81 | 13:57:03 | 79 | 13:37:05 | 80 | 42 | 13:20:05 | 35 | 13:45:01 | 39.03 | 0 | |||||||
| 05/04/2026 | 15:00:00 | 124 | 81 | 14:19:03 | 79 | 14:24:04 | 81 | 41 | 14:27:02 | 36 | 14:20:02 | 38.39 | 0 | |||||||
| 05/04/2026 | 16:00:00 | 124 | 81 | 15:00:03 | 78 | 16:00:00 | 78 | 40 | 15:57:02 | 35 | 15:41:05 | 39.14 | 0 | |||||||
| 05/04/2026 | 17:00:00 | 124 | 79 | 16:04:03 | 77 | 16:46:00 | 78 | 42 | 16:53:00 | 37 | 16:11:04 | 40.29 | 0 | |||||||
| 05/04/2026 | 18:00:00 | 124 | 78 | 17:12:02 | 75 | 17:59:03 | 75 | 44 | 17:58:05 | 39 | 17:20:05 | 43.45 | 0 | |||||||
| 05/04/2026 | 19:00:00 | 124 | 75 | 18:00:01 | 71 | 18:54:04 | 71 | 52 | 18:51:05 | 43 | 18:03:00 | 51.45 | 0 | |||||||
| 05/04/2026 | 20:00:00 | 124 | 71 | 19:11:03 | 69 | 19:44:02 | 69 | 59 | 19:43:04 | 51 | 19:00:04 | 55.85 | 0 | |||||||
| 05/04/2026 | 21:00:00 | 124 | 70 | 20:16:05 | 69 | 20:59:05 | 69 | 56 | 20:00:04 | 54 | 20:50:02 | 55.31 | 0 | |||||||
| 05/04/2026 | 22:00:00 | 124 | 69 | 21:00:01 | 68 | 21:44:00 | 68 | 59 | 21:43:04 | 55 | 21:00:01 | 57.74 | 0 | |||||||
| 05/04/2026 | 23:00:00 | 124 | 68 | 22:14:00 | 68 | 23:00:00 | 68 | 60 | 23:00:00 | 58 | 22:14:00 | 60.11 | 0 | |||||||
| 05/05/2026 | 0:00:00 | 125 | 68 | 23:02:05 | 67 | 23:54:01 | 67 | 63 | 23:58:02 | 60 | 23:02:04 | 63.08 | 0 | |||||||
| 05/05/2026 | 1:00:00 | 125 | 67 | 0:03:00 | 65 | 0:55:04 | 65 | 67 | 1:00:00 | 63 | 0:03:02 | 66.92 | 0 | |||||||
| 05/05/2026 | 2:00:00 | 125 | 65 | 1:00:01 | 63 | 1:55:04 | 63 | 72 | 1:54:01 | 67 | 1:00:04 | 71.11 | 0 | |||||||
| 05/05/2026 | 3:00:00 | 125 | 63 | 2:09:01 | 62 | 2:58:04 | 62 | 73 | 3:00:00 | 71 | 2:08:05 | 73.41 | 0 | |||||||
| 05/05/2026 | 4:00:00 | 125 | 62 | 3:08:01 | 62 | 3:55:03 | 62 | 75 | 3:55:03 | 73 | 3:07:02 | 75.29 | 0 | |||||||
| 05/05/2026 | 5:00:00 | 125 | 62 | 4:00:01 | 61 | 4:37:01 | 61 | 77 | 4:37:00 | 75 | 4:00:01 | 76.04 | 0 | |||||||
| 05/05/2026 | 6:00:00 | 125 | 63 | 5:59:02 | 61 | 5:06:05 | 63 | 77 | 5:36:00 | 74 | 5:59:05 | 74.29 | 0 | |||||||
| 05/05/2026 | 7:00:00 | 125 | 65 | 7:00:00 | 63 | 6:00:01 | 65 | 74 | 6:00:04 | 71 | 6:54:05 | 71.34 | 0 | |||||||
| 05/05/2026 | 8:00:00 | 125 | 67 | 7:58:05 | 65 | 7:00:03 | 67 | 72 | 7:45:03 | 71 | 7:09:03 | 71.53 | 0 | |||||||
| 05/05/2026 | 9:00:00 | 125 | 70 | 9:00:00 | 67 | 8:00:01 | 70 | 72 | 8:22:05 | 69 | 8:54:03 | 69.71 | 0 | |||||||
| 05/05/2026 | 10:00:00 | 125 | 71 | 9:40:03 | 69 | 9:11:03 | 70 | 73 | 9:57:04 | 69 | 9:01:04 | 71.64 | 0 | |||||||
| 05/05/2026 | 11:00:00 | 125 | 72 | 10:50:02 | 70 | 10:08:05 | 72 | 73 | 10:13:05 | 70 | 10:50:04 | 70.97 | 0 | |||||||
| 05/05/2026 | 12:00:00 | 125 | 76 | 11:51:01 | 72 | 11:02:04 | 75 | 71 | 11:06:00 | 66 | 11:52:03 | 67.83 | 0 | |||||||
| 05/05/2026 | 13:00:00 | 125 | 77 | 13:00:00 | 75 | 12:13:01 | 77 | 69 | 12:15:00 | 66 | 12:36:02 | 67.35 | 0 | |||||||
| 05/05/2026 | 14:00:00 | 125 | 78 | 13:06:00 | 73 | 13:59:05 | 73 | 78 | 14:00:00 | 65 | 13:06:02 | 78.28 | 0 | |||||||
| 05/05/2026 | 15:00:00 | 125 | 73 | 14:56:00 | 71 | 14:16:01 | 73 | 87 | 14:18:02 | 78 | 14:59:04 | 77.68 | 0 | |||||||
| 05/05/2026 | 16:00:00 | 125 | 77 | 15:56:00 | 73 | 15:01:00 | 77 | 79 | 15:01:02 | 68 | 15:58:01 | 68 | 0 | |||||||
| 05/05/2026 | 17:00:00 | 125 | 77 | 17:00:00 | 76 | 16:30:04 | 77 | 71 | 16:45:05 | 67 | 16:06:00 | 67.91 | 0 | |||||||
| 05/05/2026 | 18:00:00 | 125 | 78 | 17:05:02 | 77 | 17:57:04 | 77 | 70 | 17:59:05 | 67 | 17:05:04 | 69.74 | 0 | |||||||
| 05/05/2026 | 19:00:00 | 125 | 77 | 18:17:04 | 76 | 18:55:01 | 76 | 70 | 18:55:03 | 69 | 18:17:04 | 70.15 | 0 | |||||||
| 05/05/2026 | 20:00:00 | 125 | 76 | 19:03:01 | 76 | 19:59:05 | 76 | 73 | 19:59:04 | 70 | 19:00:02 | 72.71 | 0 | |||||||
| 05/05/2026 | 21:00:00 | 125 | 76 | 20:08:05 | 75 | 20:55:01 | 75 | 75 | 20:56:00 | 73 | 20:05:05 | 75.12 | 0 | |||||||
| 05/05/2026 | 22:00:00 | 125 | 75 | 21:14:04 | 75 | 21:49:02 | 75 | 77 | 21:59:02 | 75 | 21:05:01 | 76.7 | 0 | |||||||
| 05/05/2026 | 23:00:00 | 125 | 75 | 22:32:01 | 75 | 22:00:02 | 75 | 78 | 22:50:02 | 77 | 22:07:02 | 77.7 | 0 | |||||||
| 05/06/2026 | 0:00:00 | 126 | 75 | 23:35:00 | 75 | 23:00:02 | 75 | 79 | 23:59:00 | 77 | 23:18:00 | 78.76 | 0 | |||||||
| 05/06/2026 | 1:00:00 | 126 | 75 | 0:18:02 | 75 | 0:56:04 | 75 | 80 | 0:57:00 | 79 | 0:01:04 | 79.89 | 0 | |||||||
| 05/06/2026 | 2:00:00 | 126 | 75 | 1:00:05 | 74 | 1:47:00 | 74 | 82 | 1:47:02 | 80 | 1:00:01 | 81.2 | 0 | |||||||
| 05/06/2026 | 3:00:00 | 126 | 75 | 2:09:05 | 74 | 2:41:04 | 74 | 81 | 2:00:01 | 81 | 2:51:05 | 80.7 | 0 | |||||||
| 05/06/2026 | 4:00:00 | 126 | 74 | 3:00:01 | 73 | 3:53:04 | 74 | 83 | 3:55:04 | 81 | 3:01:00 | 82.2 | 0 | |||||||
| 05/06/2026 | 5:00:00 | 126 | 74 | 4:19:00 | 74 | 4:01:05 | 74 | 82 | 4:02:04 | 82 | 4:31:04 | 82 | 0 | |||||||
| 05/06/2026 | 6:00:00 | 126 | 74 | 5:01:01 | 73 | 5:26:04 | 74 | 83 | 5:54:00 | 82 | 5:01:03 | 82.6 | 0 | |||||||
| 05/06/2026 | 7:00:00 | 126 | 74 | 6:28:03 | 64 | 7:00:00 | 64 | 91 | 6:58:04 | 79 | 6:33:02 | 90.9 | 0.03 | |||||||
| 05/06/2026 | 8:00:00 | 126 | 64 | 7:00:01 | 61 | 7:59:00 | 61 | 92 | 7:47:00 | 90 | 7:07:03 | 91.5 | 0.02 | |||||||
| 05/06/2026 | 9:00:00 | 126 | 61 | 8:00:04 | 59 | 8:59:05 | 59 | 92 | 8:00:04 | 90 | 8:33:00 | 90.4 | 0 | |||||||
| 05/06/2026 | 10:00:00 | 126 | 59 | 9:01:05 | 57 | 9:54:04 | 58 | 92 | 9:25:05 | 90 | 9:54:03 | 90.4 | 0 | |||||||
| 05/06/2026 | 11:00:00 | 126 | 58 | 10:07:04 | 57 | 10:31:04 | 58 | 91 | 10:00:03 | 88 | 10:52:03 | 88.5 | 0 | |||||||
| 05/06/2026 | 12:00:00 | 126 | 59 | 11:36:04 | 57 | 11:09:04 | 58 | 90 | 11:13:01 | 86 | 11:37:04 | 87.1 | 0 | |||||||
| 05/06/2026 | 13:00:00 | 126 | 59 | 12:22:05 | 58 | 12:48:00 | 58 | 89 | 12:44:03 | 86 | 12:19:01 | 87.5 | 0 | |||||||
| 05/06/2026 | 14:00:00 | 126 | 59 | 13:31:00 | 58 | 14:00:00 | 58 | 88 | 13:01:03 | 84 | 13:51:01 | 84.7 | 0 | |||||||
| 05/06/2026 | 15:00:00 | 126 | 58 | 14:02:04 | 56 | 14:32:03 | 57 | 88 | 14:19:04 | 84 | 14:48:05 | 84.9 | 0 | |||||||
| 05/06/2026 | 16:00:00 | 126 | 58 | 15:21:03 | 57 | 15:00:01 | 58 | 85 | 15:00:02 | 82 | 15:27:04 | 83.5 | 0 | |||||||
| 05/06/2026 | 17:00:00 | 126 | 58 | 16:56:05 | 58 | 16:12:04 | 58 | 84 | 16:02:00 | 81 | 16:31:04 | 80.8 | 0 | |||||||
| 05/06/2026 | 18:00:00 | 126 | 59 | 17:31:00 | 57 | 18:00:00 | 57 | 86 | 17:56:04 | 81 | 17:27:02 | 84.8 | 0 | |||||||
| 05/06/2026 | 19:00:00 | 126 | 58 | 18:28:00 | 57 | 19:00:00 | 57 | 86 | 18:01:01 | 84 | 19:00:00 | 83.7 | 0 | |||||||
| 05/06/2026 | 20:00:00 | 126 | 57 | 19:00:01 | 57 | 19:56:00 | 57 | 85 | 20:00:00 | 84 | 19:13:05 | 84.8 | 0 | |||||||
| 05/06/2026 | 21:00:00 | 126 | 57 | 20:01:03 | 56 | 20:49:03 | 56 | 86 | 20:52:04 | 84 | 20:18:00 | 85 | 0 | |||||||
| 05/06/2026 | 22:00:00 | 126 | 56 | 21:04:03 | 55 | 21:58:00 | 55 | 88 | 21:48:02 | 85 | 21:00:03 | 88 | 0 | |||||||
| 05/06/2026 | 23:00:00 | 126 | 56 | 23:00:00 | 55 | 22:02:02 | 56 | 88 | 22:10:02 | 87 | 22:59:05 | 86.9 | 0 | |||||||
| 05/07/2026 | 0:00:00 | 127 | 56 | 23:16:03 | 56 | 23:55:05 | 56 | 88 | 23:59:01 | 86 | 23:09:01 | 87.5 | 0 | |||||||
| 05/07/2026 | 1:00:00 | 127 | 56 | 0:01:05 | 55 | 0:49:05 | 55 | 90 | 0:57:00 | 88 | 0:00:01 | 89.8 | 0 | |||||||
| 05/07/2026 | 2:00:00 | 127 | 55 | 1:09:02 | 54 | 1:59:05 | 54 | 92 | 1:58:02 | 89 | 1:06:00 | 91.6 | 0 | |||||||
| 05/07/2026 | 3:00:00 | 127 | 55 | 3:00:00 | 54 | 2:03:05 | 55 | 92 | 2:27:05 | 91 | 3:00:00 | 90.9 | 0.01 | |||||||
| 05/07/2026 | 4:00:00 | 127 | 55 | 3:33:05 | 55 | 3:02:05 | 55 | 91 | 3:01:00 | 89 | 3:37:05 | 89.6 | 0 | |||||||
| 05/07/2026 | 5:00:00 | 127 | 55 | 4:02:05 | 54 | 4:57:01 | 54 | 90 | 4:58:04 | 89 | 4:13:01 | 90.3 | 0 | |||||||
| 05/07/2026 | 6:00:00 | 127 | 54 | 5:00:03 | 53 | 5:33:04 | 54 | 91 | 5:35:00 | 89 | 5:59:03 | 89.4 | 0 | |||||||
| 05/07/2026 | 7:00:00 | 127 | 56 | 6:55:03 | 54 | 6:02:00 | 56 | 90 | 6:00:03 | 82 | 6:56:01 | 83.3 | 0 | |||||||
| 05/07/2026 | 8:00:00 | 127 | 59 | 8:00:00 | 56 | 7:00:01 | 59 | 84 | 7:00:02 | 72 | 7:51:04 | 75.54 | 0 | |||||||
| 05/07/2026 | 9:00:00 | 127 | 62 | 8:34:01 | 59 | 8:01:02 | 61 | 76 | 8:00:01 | 64 | 8:58:02 | 67.46 | 0 | |||||||
| 05/07/2026 | 10:00:00 | 127 | 63 | 10:00:00 | 61 | 9:15:04 | 63 | 68 | 9:00:02 | 59 | 9:50:05 | 60.34 | 0 | |||||||
| 05/07/2026 | 11:00:00 | 127 | 66 | 11:00:00 | 62 | 10:05:03 | 66 | 63 | 10:07:05 | 53 | 10:58:05 | 57.74 | 0 | |||||||
| Average | 65.07 | 63.21 | 64.15 | 70.76 | 64.46 | 67.5 | 0 | 0 | 0 | 0 | 0 | 0 | 0 | |||||||
| Total | 0.14 |